createdAt,value
2018-09-01T00:00:28.689Z,11.54
2018-09-01T00:01:28.914Z,11.57
2018-09-01T00:02:29.139Z,11.54
2018-09-01T00:03:29.376Z,11.47
2018-09-01T00:04:29.593Z,11.48
2018-09-01T00:05:29.820Z,11.52
2018-09-01T00:06:30.045Z,11.45
2018-09-01T00:07:30.340Z,11.50
2018-09-01T00:08:30.498Z,11.54
2018-09-01T00:09:30.721Z,11.47
2018-09-01T00:10:30.949Z,11.47
2018-09-01T00:11:31.171Z,11.48
2018-09-01T00:12:31.398Z,11.51
2018-09-01T00:13:31.633Z,11.51
2018-09-01T00:14:31.845Z,11.47
2018-09-01T00:15:32.078Z,11.43
2018-09-01T00:16:32.297Z,11.54
2018-09-01T00:17:32.526Z,11.40
2018-09-01T00:18:32.753Z,11.43
2018-09-01T00:19:32.978Z,11.33
2018-09-01T00:20:33.203Z,11.40
2018-09-01T00:21:33.443Z,11.37
2018-09-01T00:22:33.658Z,11.37
2018-09-01T00:23:33.882Z,11.19
2018-09-01T00:24:34.110Z,11.17
2018-09-01T00:25:34.337Z,11.26
2018-09-01T00:26:34.565Z,11.26
2018-09-01T00:27:34.791Z,11.12
2018-09-01T00:28:35.027Z,11.05
2018-09-01T00:29:35.239Z,11.12
2018-09-01T00:30:35.499Z,11.18
2018-09-01T00:31:35.695Z,11.17
2018-09-01T00:32:35.926Z,11.17
2018-09-01T00:33:36.152Z,11.22
2018-09-01T00:34:36.372Z,11.07
2018-09-01T00:35:36.602Z,10.99
2018-09-01T00:36:36.828Z,10.86
2018-09-01T00:37:37.060Z,10.78
2018-09-01T00:38:37.287Z,10.76
2018-09-01T00:39:37.507Z,10.75
2018-09-01T00:40:37.739Z,10.82
2018-09-01T00:41:37.962Z,10.78
2018-09-01T00:42:38.191Z,10.71
2018-09-01T00:43:38.416Z,10.72
2018-09-01T00:44:38.647Z,10.89
2018-09-01T00:45:38.869Z,10.93
2018-09-01T00:46:39.097Z,10.86
2018-09-01T00:47:39.328Z,10.93
2018-09-01T00:48:39.550Z,11.02
2018-09-01T00:49:39.783Z,10.94
2018-09-01T00:50:40.004Z,10.82
2018-09-01T00:51:40.237Z,10.86
2018-09-01T00:52:40.459Z,10.94
2018-09-01T00:53:40.683Z,11.00
2018-09-01T00:54:40.909Z,10.99
2018-09-01T00:55:41.137Z,10.92
2018-09-01T00:56:41.359Z,10.99
2018-09-01T00:57:41.595Z,10.94
2018-09-01T00:58:41.816Z,10.94
2018-09-01T00:59:42.042Z,10.90
2018-09-01T01:00:42.273Z,10.84
2018-09-01T01:01:42.492Z,10.76
2018-09-01T01:02:42.721Z,10.63
2018-09-01T01:03:42.945Z,10.64
2018-09-01T01:04:43.177Z,10.63
2018-09-01T01:05:43.410Z,10.61
2018-09-01T01:06:43.630Z,10.72
2018-09-01T01:07:43.858Z,10.63
2018-09-01T01:08:44.087Z,10.46
2018-09-01T01:09:44.322Z,10.40
2018-09-01T01:10:44.537Z,10.46
2018-09-01T01:11:44.759Z,10.57
2018-09-01T01:12:44.984Z,10.51
2018-09-01T01:13:45.209Z,10.57
2018-09-01T01:14:45.439Z,10.67
2018-09-01T01:15:45.673Z,10.51
2018-09-01T01:16:45.891Z,10.57
2018-09-01T01:17:46.125Z,10.56
2018-09-01T01:18:46.348Z,10.41
2018-09-01T01:19:46.573Z,10.44
2018-09-01T01:20:46.801Z,10.30
2018-09-01T01:21:47.028Z,10.25
2018-09-01T01:22:47.253Z,10.33
2018-09-01T01:23:47.481Z,10.33
2018-09-01T01:24:47.709Z,10.34
2018-09-01T01:25:47.933Z,10.48
2018-09-01T01:26:48.161Z,10.38
2018-09-01T01:27:48.390Z,10.38
2018-09-01T01:28:48.616Z,10.40
2018-09-01T01:29:48.843Z,10.35
2018-09-01T01:30:49.070Z,10.34
2018-09-01T01:31:49.295Z,10.28
2018-09-01T01:32:49.525Z,10.35
2018-09-01T01:33:49.752Z,10.31
2018-09-01T01:34:49.977Z,10.31
2018-09-01T01:35:50.203Z,10.12
2018-09-01T01:36:50.428Z,10.15
2018-09-01T01:37:50.656Z,10.09
2018-09-01T01:38:50.884Z,10.16
2018-09-01T01:39:51.111Z,10.20
2018-09-01T01:40:51.335Z,10.20
2018-09-01T01:41:51.570Z,10.30
2018-09-01T01:42:51.797Z,10.09
2018-09-01T01:43:52.021Z,10.22
2018-09-01T01:44:52.247Z,10.15
2018-09-01T01:45:52.472Z,10.15
2018-09-01T01:46:52.704Z,10.10
2018-09-01T01:47:52.932Z,10.10
2018-09-01T01:48:53.157Z,9.91
2018-09-01T01:49:53.386Z,10.09
2018-09-01T01:50:53.612Z,9.99
2018-09-01T01:51:53.841Z,10.05
2018-09-01T01:52:54.064Z,10.09
2018-09-01T01:53:54.296Z,9.99
2018-09-01T01:54:54.513Z,9.86
2018-09-01T01:55:54.746Z,10.12
2018-09-01T01:56:54.967Z,10.05
2018-09-01T01:57:55.194Z,9.91
2018-09-01T01:58:55.422Z,9.99
2018-09-01T01:59:55.645Z,9.98
2018-09-01T02:00:55.872Z,9.92
2018-09-01T02:01:56.101Z,10.01
2018-09-01T02:02:56.327Z,9.97
2018-09-01T02:03:56.553Z,9.92
2018-09-01T02:04:56.783Z,9.99
2018-09-01T02:05:57.006Z,9.97
2018-09-01T02:06:57.232Z,9.91
2018-09-01T02:07:57.457Z,9.87
2018-09-01T02:08:57.683Z,10.01
2018-09-01T02:09:57.910Z,10.01
2018-09-01T02:10:58.139Z,9.91
2018-09-01T02:11:58.362Z,9.86
2018-09-01T02:12:58.593Z,9.87
2018-09-01T02:13:58.819Z,9.89
2018-09-01T02:14:59.039Z,9.80
2018-09-01T02:15:59.263Z,9.86
2018-09-01T02:16:59.491Z,9.89
2018-09-01T02:17:59.716Z,9.87
2018-09-01T02:18:59.953Z,9.86
2018-09-01T02:20:00.184Z,9.76
2018-09-01T02:21:00.409Z,9.84
2018-09-01T02:22:00.638Z,9.74
2018-09-01T02:23:00.867Z,9.66
2018-09-01T02:24:01.093Z,9.72
2018-09-01T02:25:01.326Z,9.61
2018-09-01T02:26:01.540Z,9.56
2018-09-01T02:27:01.764Z,9.64
2018-09-01T02:28:01.996Z,9.72
2018-09-01T02:29:02.220Z,9.59
2018-09-01T02:30:02.449Z,9.59
2018-09-01T02:31:02.671Z,9.61
2018-09-01T02:32:02.896Z,9.51
2018-09-01T02:33:03.121Z,9.44
2018-09-01T02:34:03.345Z,9.41
2018-09-01T02:35:03.575Z,9.61
2018-09-01T02:36:03.802Z,9.59
2018-09-01T02:37:04.034Z,9.64
2018-09-01T02:38:04.257Z,9.61
2018-09-01T02:39:04.481Z,9.61
2018-09-01T02:40:04.713Z,9.50
2018-09-01T02:41:04.940Z,9.51
2018-09-01T02:42:05.165Z,9.41
2018-09-01T02:43:05.394Z,9.50
2018-09-01T02:44:05.621Z,9.59
2018-09-01T02:45:05.849Z,9.58
2018-09-01T02:46:06.080Z,9.56
2018-09-01T02:47:06.306Z,9.48
2018-09-01T02:48:06.520Z,9.48
2018-09-01T02:49:06.750Z,9.54
2018-09-01T02:50:06.978Z,9.36
2018-09-01T02:51:07.198Z,9.32
2018-09-01T02:52:07.426Z,9.28
2018-09-01T02:53:07.653Z,9.47
2018-09-01T02:54:07.883Z,9.32
2018-09-01T02:55:08.107Z,9.29
2018-09-01T02:56:08.337Z,9.29
2018-09-01T02:57:08.560Z,9.34
2018-09-01T02:58:08.792Z,9.25
2018-09-01T02:59:09.012Z,9.40
2018-09-01T03:00:09.231Z,9.29
2018-09-01T03:01:09.465Z,9.23
2018-09-01T03:02:09.690Z,9.37
2018-09-01T03:03:09.917Z,9.29
2018-09-01T03:04:10.144Z,9.39
2018-09-01T03:05:10.367Z,9.36
2018-09-01T03:06:10.594Z,9.46
2018-09-01T03:07:10.819Z,9.46
2018-09-01T03:08:11.045Z,9.51
2018-09-01T03:09:11.275Z,9.40
2018-09-01T03:10:11.499Z,9.22
2018-09-01T03:11:11.722Z,9.21
2018-09-01T03:12:11.951Z,9.21
2018-09-01T03:13:12.176Z,9.18
2018-09-01T03:14:12.398Z,9.19
2018-09-01T03:15:12.621Z,9.32
2018-09-01T03:16:12.851Z,9.34
2018-09-01T03:17:13.081Z,9.21
2018-09-01T03:18:13.314Z,9.26
2018-09-01T03:19:13.536Z,9.22
2018-09-01T03:20:13.761Z,9.23
2018-09-01T03:21:13.986Z,9.31
2018-09-01T03:22:14.211Z,9.31
2018-09-01T03:23:14.439Z,9.25
2018-09-01T03:24:14.665Z,9.28
2018-09-01T03:25:14.890Z,9.32
2018-09-01T03:26:15.117Z,9.10
2018-09-01T03:27:15.341Z,9.19
2018-09-01T03:28:15.572Z,9.03
2018-09-01T03:29:15.794Z,9.02
2018-09-01T03:30:16.021Z,9.08
2018-09-01T03:31:16.252Z,8.97
2018-09-01T03:32:16.480Z,9.02
2018-09-01T03:33:16.703Z,8.89
2018-09-01T03:34:16.935Z,9.08
2018-09-01T03:35:17.161Z,9.03
2018-09-01T03:36:17.382Z,9.00
2018-09-01T03:37:17.612Z,9.08
2018-09-01T03:38:17.837Z,9.08
2018-09-01T03:39:18.063Z,9.06
2018-09-01T03:40:18.293Z,9.13
2018-09-01T03:41:18.518Z,9.04
2018-09-01T03:42:18.742Z,9.18
2018-09-01T03:43:18.971Z,9.22
2018-09-01T03:44:19.210Z,9.18
2018-09-01T03:45:19.416Z,9.18
2018-09-01T03:46:19.642Z,9.03
2018-09-01T03:47:19.871Z,9.21
2018-09-01T03:48:20.107Z,9.14
2018-09-01T03:49:20.323Z,9.06
2018-09-01T03:50:20.550Z,8.91
2018-09-01T03:51:20.776Z,8.92
2018-09-01T03:52:20.998Z,8.82
2018-09-01T03:53:21.228Z,8.74
2018-09-01T03:54:21.460Z,8.76
2018-09-01T03:55:21.669Z,8.88
2018-09-01T03:56:21.912Z,8.89
2018-09-01T03:57:22.136Z,8.91
2018-09-01T03:58:22.361Z,8.81
2018-09-01T03:59:22.591Z,8.67
2018-09-01T04:00:22.814Z,8.73
2018-09-01T04:01:23.044Z,8.71
2018-09-01T04:02:23.270Z,8.85
2018-09-01T04:03:23.491Z,8.85
2018-09-01T04:04:23.716Z,8.99
2018-09-01T04:05:23.940Z,9.02
2018-09-01T04:06:24.169Z,8.91
2018-09-01T04:07:24.391Z,8.88
2018-09-01T04:08:24.614Z,8.94
2018-09-01T04:09:24.839Z,9.02
2018-09-01T04:10:25.064Z,8.97
2018-09-01T04:11:25.291Z,8.99
2018-09-01T04:12:25.518Z,9.03
2018-09-01T04:13:25.747Z,9.10
2018-09-01T04:14:25.972Z,9.19
2018-09-01T04:15:26.198Z,9.04
2018-09-01T04:16:26.420Z,9.16
2018-09-01T04:17:26.649Z,9.16
2018-09-01T04:18:26.875Z,9.10
2018-09-01T04:19:27.100Z,9.06
2018-09-01T04:20:27.327Z,9.22
2018-09-01T04:21:27.554Z,9.10
2018-09-01T04:22:27.783Z,9.13
2018-09-01T04:23:28.009Z,8.92
2018-09-01T04:24:28.234Z,8.92
2018-09-01T04:25:28.463Z,8.94
2018-09-01T04:26:28.684Z,8.79
2018-09-01T04:27:28.910Z,8.78
2018-09-01T04:28:29.135Z,8.69
2018-09-01T04:29:29.362Z,8.66
2018-09-01T04:30:29.588Z,8.61
2018-09-01T04:31:29.814Z,8.49
2018-09-01T04:32:30.037Z,8.49
2018-09-01T04:33:30.265Z,8.56
2018-09-01T04:34:30.492Z,8.58
2018-09-01T04:35:30.718Z,8.70
2018-09-01T04:36:30.943Z,8.61
2018-09-01T04:37:31.170Z,8.58
2018-09-01T04:38:31.401Z,8.61
2018-09-01T04:39:31.623Z,8.61
2018-09-01T04:40:31.848Z,8.64
2018-09-01T04:41:32.077Z,8.61
2018-09-01T04:42:32.299Z,8.71
2018-09-01T04:43:32.525Z,8.73
2018-09-01T04:44:32.751Z,8.64
2018-09-01T04:45:32.975Z,8.71
2018-09-01T04:46:33.206Z,8.67
2018-09-01T04:47:33.469Z,8.81
2018-09-01T04:48:33.694Z,8.78
2018-09-01T04:49:33.921Z,8.79
2018-09-01T04:50:34.151Z,8.74
2018-09-01T04:51:34.378Z,8.82
2018-09-01T04:52:34.604Z,8.85
2018-09-01T04:53:34.831Z,8.92
2018-09-01T04:54:35.057Z,8.99
2018-09-01T04:55:35.283Z,9.06
2018-09-01T04:56:35.507Z,9.03
2018-09-01T04:57:35.735Z,9.16
2018-09-01T04:58:35.964Z,9.25
2018-09-01T04:59:36.190Z,9.21
2018-09-01T05:00:36.420Z,9.29
2018-09-01T05:01:36.642Z,9.25
2018-09-01T05:02:36.868Z,9.25
2018-09-01T05:03:37.101Z,9.29
2018-09-01T05:04:37.321Z,9.21
2018-09-01T05:05:37.552Z,9.14
2018-09-01T05:06:38.524Z,9.23
2018-09-01T05:07:38.001Z,9.11
2018-09-01T05:08:38.230Z,9.21
2018-09-01T05:09:38.454Z,9.23
2018-09-01T05:10:38.679Z,9.19
2018-09-01T05:11:38.909Z,9.10
2018-09-01T05:12:39.131Z,9.18
2018-09-01T05:13:39.360Z,9.06
2018-09-01T05:14:39.590Z,9.02
2018-09-01T05:15:39.822Z,8.99
2018-09-01T05:16:40.046Z,8.92
2018-09-01T05:17:40.274Z,9.08
2018-09-01T05:18:40.497Z,9.16
2018-09-01T05:19:40.725Z,9.21
2018-09-01T05:20:40.952Z,9.11
2018-09-01T05:21:41.178Z,8.91
2018-09-01T05:22:41.401Z,8.95
2018-09-01T05:23:41.627Z,9.03
2018-09-01T05:24:41.852Z,9.14
2018-09-01T05:25:42.078Z,9.11
2018-09-01T05:26:42.304Z,9.16
2018-09-01T05:27:42.530Z,9.29
2018-09-01T05:28:42.758Z,9.28
2018-09-01T05:29:42.985Z,9.40
2018-09-01T05:30:43.206Z,9.31
2018-09-01T05:31:43.433Z,9.51
2018-09-01T05:32:43.662Z,9.92
2018-09-01T05:33:43.884Z,10.17
2018-09-01T05:34:44.114Z,10.44
2018-09-01T05:35:44.340Z,10.61
2018-09-01T05:36:44.668Z,11.08
2018-09-01T05:37:44.797Z,11.33
2018-09-01T05:38:45.034Z,11.37
2018-09-01T05:39:45.252Z,11.75
2018-09-01T05:40:45.478Z,11.68
2018-09-01T05:41:45.707Z,11.77
2018-09-01T05:42:45.933Z,11.51
2018-09-01T05:43:46.207Z,11.44
2018-09-01T05:44:46.390Z,11.41
2018-09-01T05:45:46.617Z,11.32
2018-09-01T05:46:46.847Z,11.29
2018-09-01T05:47:47.073Z,11.37
2018-09-01T05:48:47.300Z,11.54
2018-09-01T05:49:47.523Z,11.66
2018-09-01T05:50:47.820Z,11.55
2018-09-01T05:51:47.985Z,11.50
2018-09-01T05:52:48.215Z,11.65
2018-09-01T05:53:48.435Z,11.95
2018-09-01T05:54:48.662Z,11.90
2018-09-01T05:55:48.891Z,12.00
2018-09-01T05:56:49.117Z,12.21
2018-09-01T05:57:49.351Z,12.61
2018-09-01T05:58:49.578Z,12.85
2018-09-01T05:59:49.802Z,12.98
2018-09-01T06:00:50.039Z,13.18
2018-09-01T06:01:50.257Z,13.42
2018-09-01T06:02:50.484Z,13.46
2018-09-01T06:03:50.715Z,13.30
2018-09-01T06:04:50.943Z,13.49
2018-09-01T06:05:51.219Z,12.90
2018-09-01T06:06:51.401Z,12.60
2018-09-01T06:07:51.631Z,12.67
2018-09-01T06:08:51.858Z,12.80
2018-09-01T06:09:52.098Z,13.31
2018-09-01T06:10:52.313Z,13.03
2018-09-01T06:11:52.540Z,13.05
2018-09-01T06:12:52.771Z,13.03
2018-09-01T06:13:53.000Z,12.75
2018-09-01T06:14:53.227Z,12.68
2018-09-01T06:15:53.448Z,12.62
2018-09-01T06:16:53.677Z,13.05
2018-09-01T06:17:53.991Z,13.09
2018-09-01T06:18:54.132Z,13.39
2018-09-01T06:19:54.355Z,13.65
2018-09-01T06:20:54.582Z,13.89
2018-09-01T06:21:54.811Z,14.04
2018-09-01T06:22:55.043Z,13.87
2018-09-01T06:23:55.286Z,14.10
2018-09-01T06:24:55.551Z,14.51
2018-09-01T06:25:55.727Z,14.69
2018-09-01T06:26:55.956Z,15.04
2018-09-01T06:27:56.205Z,14.43
2018-09-01T06:28:56.420Z,14.59
2018-09-01T06:29:56.641Z,14.28
2018-09-01T06:30:56.871Z,14.40
2018-09-01T06:31:57.101Z,14.91
2018-09-01T06:32:57.394Z,14.65
2018-09-01T06:33:57.561Z,14.47
2018-09-01T06:34:57.794Z,14.85
2018-09-01T06:35:58.017Z,15.22
2018-09-01T06:36:58.243Z,15.28
2018-09-01T06:37:58.479Z,15.40
2018-09-01T06:38:58.706Z,15.24
2018-09-01T06:39:58.934Z,14.94
2018-09-01T06:40:59.165Z,14.60
2018-09-01T06:41:59.403Z,14.58
2018-09-01T06:42:59.678Z,13.95
2018-09-01T06:43:59.854Z,13.75
2018-09-01T06:45:00.081Z,14.00
2018-09-01T06:46:00.311Z,14.11
2018-09-01T06:47:00.539Z,13.86
2018-09-01T06:48:00.766Z,13.87
2018-09-01T06:49:00.997Z,13.49
2018-09-01T06:50:01.227Z,13.53
2018-09-01T06:51:01.460Z,13.41
2018-09-01T06:52:01.679Z,13.01
2018-09-01T06:53:01.914Z,13.01
2018-09-01T06:54:02.131Z,13.08
2018-09-01T06:55:02.375Z,13.11
2018-09-01T06:56:02.601Z,13.11
2018-09-01T06:57:02.835Z,13.09
2018-09-01T06:58:03.066Z,12.85
2018-09-01T06:59:03.296Z,12.95
2018-09-01T07:00:03.524Z,12.87
2018-09-01T07:01:03.756Z,12.82
2018-09-01T07:02:04.028Z,12.90
2018-09-01T07:03:04.260Z,13.03
2018-09-01T07:04:04.483Z,13.03
2018-09-01T07:05:04.722Z,12.86
2018-09-01T07:06:04.950Z,12.68
2018-09-01T07:07:05.187Z,12.73
2018-09-01T07:08:05.409Z,12.76
2018-09-01T07:09:05.642Z,12.65
2018-09-01T07:10:05.872Z,12.72
2018-09-01T07:11:06.094Z,12.73
2018-09-01T07:12:06.321Z,12.65
2018-09-01T07:13:06.547Z,12.87
2018-09-01T07:14:06.770Z,13.22
2018-09-01T07:15:07.000Z,13.15
2018-09-01T07:16:07.229Z,13.39
2018-09-01T07:17:07.457Z,13.57
2018-09-01T07:18:07.690Z,13.65
2018-09-01T07:19:07.918Z,13.70
2018-09-01T07:20:08.141Z,13.71
2018-09-01T07:21:08.375Z,13.75
2018-09-01T07:22:08.606Z,13.85
2018-09-01T07:23:08.831Z,13.90
2018-09-01T07:24:09.060Z,13.89
2018-09-01T07:25:09.288Z,13.96
2018-09-01T07:26:09.516Z,14.30
2018-09-01T07:27:09.744Z,14.55
2018-09-01T07:28:09.972Z,14.55
2018-09-01T07:29:10.199Z,14.88
2018-09-01T07:30:10.513Z,14.92
2018-09-01T07:31:10.933Z,14.89
2018-09-01T07:32:10.897Z,14.94
2018-09-01T07:33:11.115Z,14.99
2018-09-01T07:34:11.344Z,15.00
2018-09-01T07:35:11.573Z,15.06
2018-09-01T07:36:11.803Z,15.10
2018-09-01T07:37:12.027Z,15.14
2018-09-01T07:38:12.266Z,15.28
2018-09-01T07:39:12.482Z,15.29
2018-09-01T07:40:12.713Z,15.28
2018-09-01T07:41:12.945Z,15.24
2018-09-01T07:42:13.173Z,15.17
2018-09-01T07:43:13.405Z,15.24
2018-09-01T07:44:13.631Z,15.22
2018-09-01T07:45:13.861Z,15.28
2018-09-01T07:46:14.091Z,15.33
2018-09-01T07:47:14.320Z,15.52
2018-09-01T07:48:14.552Z,15.33
2018-09-01T07:49:14.780Z,15.40
2018-09-01T07:50:15.011Z,15.43
2018-09-01T07:51:15.241Z,15.52
2018-09-01T07:52:15.464Z,15.64
2018-09-01T07:53:15.691Z,15.58
2018-09-01T07:54:15.932Z,15.88
2018-09-01T07:55:16.160Z,15.98
2018-09-01T07:56:16.499Z,16.08
2018-09-01T07:57:16.622Z,16.04
2018-09-01T07:58:16.850Z,16.10
2018-09-01T07:59:17.080Z,16.21
2018-09-01T08:00:17.309Z,16.36
2018-09-01T08:01:17.540Z,16.16
2018-09-01T08:02:17.769Z,16.26
2018-09-01T08:03:18.000Z,16.38
2018-09-01T08:04:18.232Z,16.38
2018-09-01T08:05:18.495Z,16.39
2018-09-01T08:06:18.684Z,16.43
2018-09-01T08:07:18.961Z,16.43
2018-09-01T08:08:19.161Z,16.42
2018-09-01T08:09:19.378Z,16.53
2018-09-01T08:10:19.606Z,16.58
2018-09-01T08:11:19.845Z,16.43
2018-09-01T08:12:20.069Z,16.49
2018-09-01T08:13:20.294Z,16.60
2018-09-01T08:14:20.556Z,16.53
2018-09-01T08:15:20.753Z,16.51
2018-09-01T08:16:20.984Z,16.43
2018-09-01T08:17:21.213Z,16.47
2018-09-01T08:18:21.443Z,16.56
2018-09-01T08:19:21.675Z,16.57
2018-09-01T08:20:21.903Z,16.56
2018-09-01T08:21:22.131Z,16.57
2018-09-01T08:22:22.361Z,16.56
2018-09-01T08:23:22.586Z,16.43
2018-09-01T08:24:22.818Z,16.31
2018-09-01T08:25:23.047Z,16.28
2018-09-01T08:26:23.278Z,16.29
2018-09-01T08:27:23.508Z,16.26
2018-09-01T08:28:23.739Z,16.29
2018-09-01T08:29:23.970Z,16.28
2018-09-01T08:30:24.198Z,16.16
2018-09-01T08:31:24.430Z,16.21
2018-09-01T08:32:24.661Z,16.33
2018-09-01T08:33:24.892Z,16.42
2018-09-01T08:34:25.123Z,16.47
2018-09-01T08:35:25.350Z,16.60
2018-09-01T08:36:25.581Z,16.71
2018-09-01T08:37:25.810Z,16.84
2018-09-01T08:38:26.040Z,16.97
2018-09-01T08:39:26.271Z,16.94
2018-09-01T08:40:26.507Z,16.87
2018-09-01T08:41:26.733Z,16.99
2018-09-01T08:42:26.962Z,16.89
2018-09-01T08:43:27.194Z,17.01
2018-09-01T08:44:27.423Z,16.93
2018-09-01T08:45:27.744Z,17.04
2018-09-01T08:46:27.883Z,17.05
2018-09-01T08:47:28.116Z,17.16
2018-09-01T08:48:28.348Z,17.29
2018-09-01T08:49:28.577Z,17.33
2018-09-01T08:50:28.808Z,17.46
2018-09-01T08:51:29.036Z,17.46
2018-09-01T08:52:29.275Z,17.48
2018-09-01T08:53:29.499Z,17.48
2018-09-01T08:54:29.733Z,17.60
2018-09-01T08:55:29.960Z,17.57
2018-09-01T08:56:30.251Z,17.48
2018-09-01T08:57:30.424Z,17.54
2018-09-01T08:58:30.651Z,17.51
2018-09-01T08:59:30.889Z,17.60
2018-09-01T09:00:31.110Z,17.59
2018-09-01T09:01:31.348Z,17.45
2018-09-01T09:02:31.568Z,17.48
2018-09-01T09:03:31.801Z,17.46
2018-09-01T09:04:32.027Z,17.52
2018-09-01T09:05:32.275Z,17.54
2018-09-01T09:06:32.496Z,17.51
2018-09-01T09:07:32.719Z,17.52
2018-09-01T09:08:32.947Z,17.59
2018-09-01T09:09:33.190Z,17.64
2018-09-01T09:10:33.443Z,17.79
2018-09-01T09:11:33.679Z,17.72
2018-09-01T09:12:33.907Z,17.86
2018-09-01T09:13:34.141Z,17.94
2018-09-01T09:14:34.367Z,17.98
2018-09-01T09:15:34.601Z,18.05
2018-09-01T09:16:34.825Z,17.95
2018-09-01T09:17:35.059Z,18.07
2018-09-01T09:18:35.302Z,18.18
2018-09-01T09:19:35.517Z,18.25
2018-09-01T09:20:35.754Z,18.23
2018-09-01T09:21:35.990Z,18.22
2018-09-01T09:22:36.210Z,18.25
2018-09-01T09:23:36.444Z,18.25
2018-09-01T09:24:36.676Z,18.26
2018-09-01T09:25:36.905Z,18.26
2018-09-01T09:26:37.144Z,18.20
2018-09-01T09:27:37.364Z,18.25
2018-09-01T09:28:37.597Z,18.16
2018-09-01T09:29:37.826Z,18.28
2018-09-01T09:30:38.062Z,18.29
2018-09-01T09:31:38.286Z,18.26
2018-09-01T09:32:38.515Z,18.40
2018-09-01T09:33:38.745Z,18.44
2018-09-01T09:34:38.987Z,18.50
2018-09-01T09:35:39.206Z,18.53
2018-09-01T09:36:39.438Z,18.56
2018-09-01T09:37:39.662Z,18.56
2018-09-01T09:38:39.892Z,18.45
2018-09-01T09:39:40.129Z,18.47
2018-09-01T09:40:40.356Z,18.44
2018-09-01T09:41:40.591Z,18.45
2018-09-01T09:42:40.819Z,18.49
2018-09-01T09:43:41.049Z,18.63
2018-09-01T09:44:41.283Z,18.59
2018-09-01T09:45:41.511Z,18.66
2018-09-01T09:46:41.744Z,18.75
2018-09-01T09:47:41.972Z,18.80
2018-09-01T09:48:42.201Z,18.81
2018-09-01T09:49:42.433Z,18.70
2018-09-01T09:50:42.664Z,18.58
2018-09-01T09:51:42.891Z,18.59
2018-09-01T09:52:43.121Z,18.53
2018-09-01T09:53:43.354Z,18.70
2018-09-01T09:54:43.583Z,18.80
2018-09-01T09:55:43.809Z,18.73
2018-09-01T09:56:44.043Z,18.81
2018-09-01T09:57:44.275Z,18.78
2018-09-01T09:58:44.510Z,18.77
2018-09-01T09:59:44.742Z,18.77
2018-09-01T10:00:44.965Z,18.81
2018-09-01T10:01:45.194Z,18.84
2018-09-01T10:02:45.427Z,18.95
2018-09-01T10:03:45.657Z,18.96
2018-09-01T10:04:45.886Z,19.00
2018-09-01T10:05:46.165Z,19.16
2018-09-01T10:06:46.354Z,19.29
2018-09-01T10:07:46.584Z,19.30
2018-09-01T10:08:46.816Z,19.26
2018-09-01T10:09:47.046Z,19.34
2018-09-01T10:10:47.280Z,19.34
2018-09-01T10:11:47.513Z,19.39
2018-09-01T10:12:47.744Z,19.48
2018-09-01T10:13:47.974Z,19.56
2018-09-01T10:14:48.211Z,19.47
2018-09-01T10:15:48.458Z,19.39
2018-09-01T10:16:48.672Z,19.48
2018-09-01T10:17:48.907Z,19.52
2018-09-01T10:18:49.137Z,19.58
2018-09-01T10:19:49.368Z,19.54
2018-09-01T10:20:49.601Z,19.62
2018-09-01T10:21:49.836Z,19.70
2018-09-01T10:22:50.065Z,19.73
2018-09-01T10:23:50.304Z,19.91
2018-09-01T10:24:50.537Z,19.94
2018-09-01T10:25:50.760Z,19.92
2018-09-01T10:26:51.068Z,19.94
2018-09-01T10:27:51.225Z,20.02
2018-09-01T10:28:51.457Z,20.14
2018-09-01T10:29:51.697Z,20.22
2018-09-01T10:30:51.920Z,20.32
2018-09-01T10:31:52.159Z,20.36
2018-09-01T10:32:52.386Z,20.36
2018-09-01T10:33:52.619Z,20.25
2018-09-01T10:34:52.855Z,20.29
2018-09-01T10:35:53.081Z,20.22
2018-09-01T10:36:53.322Z,20.24
2018-09-01T10:37:53.544Z,20.22
2018-09-01T10:38:53.766Z,20.19
2018-09-01T10:39:54.026Z,20.26
2018-09-01T10:40:54.240Z,20.44
2018-09-01T10:41:54.463Z,20.48
2018-09-01T10:42:54.703Z,20.63
2018-09-01T10:43:54.939Z,20.62
2018-09-01T10:44:55.167Z,20.63
2018-09-01T10:45:55.399Z,20.62
2018-09-01T10:46:55.634Z,20.63
2018-09-01T10:47:55.866Z,20.65
2018-09-01T10:48:56.099Z,20.69
2018-09-01T10:49:56.332Z,20.62
2018-09-01T10:50:56.578Z,20.78
2018-09-01T10:51:56.799Z,20.62
2018-09-01T10:52:57.030Z,20.43
2018-09-01T10:53:57.259Z,20.62
2018-09-01T10:54:57.492Z,20.62
2018-09-01T10:55:57.726Z,20.75
2018-09-01T10:56:57.957Z,20.88
2018-09-01T10:57:58.191Z,21.07
2018-09-01T10:58:58.444Z,20.95
2018-09-01T10:59:58.658Z,20.93
2018-09-01T11:00:58.891Z,20.95
2018-09-01T11:01:59.125Z,21.02
2018-09-01T11:02:59.364Z,20.85
2018-09-01T11:03:59.588Z,20.96
2018-09-01T11:04:59.819Z,20.90
2018-09-01T11:06:00.052Z,20.95
2018-09-01T11:07:00.287Z,20.92
2018-09-01T11:08:00.521Z,20.88
2018-09-01T11:09:00.752Z,20.80
2018-09-01T11:10:00.988Z,20.65
2018-09-01T11:11:01.213Z,20.74
2018-09-01T11:12:01.441Z,20.81
2018-09-01T11:13:01.672Z,20.82
2018-09-01T11:14:01.906Z,21.02
2018-09-01T11:15:02.159Z,21.07
2018-09-01T11:16:02.391Z,21.05
2018-09-01T11:17:02.620Z,20.93
2018-09-01T11:18:02.854Z,21.05
2018-09-01T11:19:03.079Z,20.93
2018-09-01T11:20:03.323Z,21.00
2018-09-01T11:21:03.547Z,20.99
2018-09-01T11:22:03.805Z,21.03
2018-09-01T11:23:04.038Z,21.15
2018-09-01T11:24:04.273Z,21.06
2018-09-01T11:25:04.509Z,21.07
2018-09-01T11:26:04.754Z,20.97
2018-09-01T11:27:04.979Z,20.95
2018-09-01T11:28:05.288Z,20.90
2018-09-01T11:29:05.442Z,20.78
2018-09-01T11:30:05.675Z,20.74
2018-09-01T11:31:05.905Z,20.77
2018-09-01T11:32:06.142Z,20.77
2018-09-01T11:33:06.372Z,20.84
2018-09-01T11:34:06.645Z,20.90
2018-09-01T11:35:06.836Z,20.96
2018-09-01T11:36:07.106Z,20.88
2018-09-01T11:37:07.304Z,20.99
2018-09-01T11:38:07.534Z,20.75
2018-09-01T11:39:07.766Z,20.82
2018-09-01T11:40:08.002Z,20.92
2018-09-01T11:41:08.230Z,21.12
2018-09-01T11:42:08.463Z,20.99
2018-09-01T11:43:08.821Z,21.12
2018-09-01T11:44:08.927Z,21.20
2018-09-01T11:45:09.158Z,21.25
2018-09-01T11:46:09.389Z,21.37
2018-09-01T11:47:09.624Z,21.48
2018-09-01T11:48:09.855Z,21.40
2018-09-01T11:49:10.090Z,21.40
2018-09-01T11:50:10.371Z,21.42
2018-09-01T11:51:10.557Z,21.50
2018-09-01T11:52:10.813Z,21.46
2018-09-01T11:53:11.062Z,21.39
2018-09-01T11:54:11.286Z,21.45
2018-09-01T11:55:11.518Z,21.42
2018-09-01T11:56:11.754Z,21.55
2018-09-01T11:57:11.982Z,21.57
2018-09-01T11:58:12.215Z,21.50
2018-09-01T11:59:12.448Z,21.51
2018-09-01T12:00:12.678Z,21.43
2018-09-01T12:01:12.908Z,21.50
2018-09-01T12:02:13.173Z,21.57
2018-09-01T12:03:13.375Z,21.64
2018-09-01T12:04:13.606Z,21.50
2018-09-01T12:05:13.839Z,21.48
2018-09-01T12:06:14.065Z,21.43
2018-09-01T12:07:14.298Z,21.51
2018-09-01T12:08:14.533Z,21.39
2018-09-01T12:09:14.969Z,21.48
2018-09-01T12:10:15.001Z,21.48
2018-09-01T12:11:15.231Z,21.43
2018-09-01T12:12:15.462Z,21.54
2018-09-01T12:13:15.695Z,21.48
2018-09-01T12:14:15.925Z,21.52
2018-09-01T12:15:16.163Z,21.55
2018-09-01T12:16:16.392Z,21.58
2018-09-01T12:17:16.628Z,21.67
2018-09-01T12:18:16.853Z,21.60
2018-09-01T12:19:17.085Z,21.61
2018-09-01T12:20:17.326Z,21.43
2018-09-01T12:21:17.556Z,21.43
2018-09-01T12:22:17.832Z,21.52
2018-09-01T12:23:18.017Z,21.52
2018-09-01T12:24:18.248Z,21.70
2018-09-01T12:25:18.484Z,21.69
2018-09-01T12:26:18.714Z,21.82
2018-09-01T12:27:18.952Z,21.77
2018-09-01T12:28:19.238Z,21.92
2018-09-01T12:29:19.422Z,21.79
2018-09-01T12:30:19.651Z,21.85
2018-09-01T12:31:19.902Z,21.79
2018-09-01T12:32:20.114Z,21.62
2018-09-01T12:33:20.347Z,21.72
2018-09-01T12:34:20.583Z,21.73
2018-09-01T12:35:20.843Z,21.70
2018-09-01T12:36:21.147Z,21.72
2018-09-01T12:37:21.277Z,21.93
2018-09-01T12:38:21.508Z,21.79
2018-09-01T12:39:21.739Z,21.66
2018-09-01T12:40:21.978Z,21.58
2018-09-01T12:41:22.208Z,21.52
2018-09-01T12:42:22.443Z,21.50
2018-09-01T12:43:22.679Z,21.55
2018-09-01T12:44:22.907Z,21.39
2018-09-01T12:45:23.142Z,21.42
2018-09-01T12:46:23.376Z,21.54
2018-09-01T12:47:23.603Z,21.61
2018-09-01T12:48:23.835Z,21.60
2018-09-01T12:49:24.066Z,21.67
2018-09-01T12:50:24.300Z,21.67
2018-09-01T12:51:24.526Z,21.58
2018-09-01T12:52:24.765Z,21.67
2018-09-01T12:53:25.016Z,21.64
2018-09-01T12:54:25.248Z,21.66
2018-09-01T12:55:25.481Z,21.77
2018-09-01T12:56:25.712Z,21.80
2018-09-01T12:57:25.947Z,21.83
2018-09-01T12:58:26.174Z,21.91
2018-09-01T12:59:26.407Z,22.07
2018-09-01T13:00:26.641Z,21.93
2018-09-01T13:01:26.880Z,21.98
2018-09-01T13:02:27.106Z,21.88